sensor_id;sensor_type;location;lat;lon;timestamp;P1;durP1;ratioP1;P2;durP2;ratioP2
3443;SDS011;1736;52.068;6.968;2023-01-10T00:02:14;7.77;;;4.37;;
3443;SDS011;1736;52.068;6.968;2023-01-10T00:04:40;11.33;;;4.83;;
3443;SDS011;1736;52.068;6.968;2023-01-10T00:07:07;16.20;;;5.57;;
3443;SDS011;1736;52.068;6.968;2023-01-10T00:09:33;15.83;;;5.70;;
3443;SDS011;1736;52.068;6.968;2023-01-10T00:12:01;10.20;;;4.57;;
3443;SDS011;1736;52.068;6.968;2023-01-10T00:14:45;14.23;;;5.27;;
3443;SDS011;1736;52.068;6.968;2023-01-10T00:17:12;12.13;;;5.00;;
3443;SDS011;1736;52.068;6.968;2023-01-10T00:19:38;11.03;;;4.13;;
3443;SDS011;1736;52.068;6.968;2023-01-10T00:22:05;11.20;;;5.07;;
3443;SDS011;1736;52.068;6.968;2023-01-10T00:24:38;12.43;;;4.97;;
3443;SDS011;1736;52.068;6.968;2023-01-10T00:27:06;13.13;;;4.80;;
3443;SDS011;1736;52.068;6.968;2023-01-10T00:29:36;12.70;;;4.37;;
3443;SDS011;1736;52.068;6.968;2023-01-10T00:32:03;15.63;;;5.70;;
3443;SDS011;1736;52.068;6.968;2023-01-10T00:34:30;10.27;;;4.13;;
3443;SDS011;1736;52.068;6.968;2023-01-10T00:36:57;17.13;;;4.70;;
3443;SDS011;1736;52.068;6.968;2023-01-10T00:39:23;12.43;;;4.60;;
3443;SDS011;1736;52.068;6.968;2023-01-10T00:41:51;14.77;;;4.37;;
3443;SDS011;1736;52.068;6.968;2023-01-10T00:44:36;11.63;;;4.50;;
3443;SDS011;1736;52.068;6.968;2023-01-10T00:47:03;11.90;;;4.43;;
3443;SDS011;1736;52.068;6.968;2023-01-10T00:49:29;12.60;;;4.83;;
3443;SDS011;1736;52.068;6.968;2023-01-10T00:51:56;10.40;;;4.50;;
3443;SDS011;1736;52.068;6.968;2023-01-10T00:54:24;10.83;;;4.30;;
3443;SDS011;1736;52.068;6.968;2023-01-10T00:56:50;17.70;;;4.73;;
3443;SDS011;1736;52.068;6.968;2023-01-10T00:59:17;14.40;;;5.20;;
3443;SDS011;1736;52.068;6.968;2023-01-10T01:01:45;15.97;;;5.30;;
3443;SDS011;1736;52.068;6.968;2023-01-10T01:04:11;9.30;;;5.13;;
3443;SDS011;1736;52.068;6.968;2023-01-10T01:06:38;20.10;;;5.63;;
3443;SDS011;1736;52.068;6.968;2023-01-10T01:09:04;11.33;;;5.20;;
3443;SDS011;1736;52.068;6.968;2023-01-10T01:11:31;17.17;;;4.87;;
3443;SDS011;1736;52.068;6.968;2023-01-10T01:13:57;16.03;;;5.10;;
3443;SDS011;1736;52.068;6.968;2023-01-10T01:16:24;16.70;;;5.27;;
3443;SDS011;1736;52.068;6.968;2023-01-10T01:18:52;17.23;;;5.07;;
3443;SDS011;1736;52.068;6.968;2023-01-10T01:21:18;14.53;;;4.50;;
3443;SDS011;1736;52.068;6.968;2023-01-10T01:23:45;16.03;;;4.57;;
3443;SDS011;1736;52.068;6.968;2023-01-10T01:26:12;10.40;;;3.80;;
3443;SDS011;1736;52.068;6.968;2023-01-10T01:28:38;12.63;;;4.20;;
3443;SDS011;1736;52.068;6.968;2023-01-10T01:31:05;18.50;;;4.30;;
3443;SDS011;1736;52.068;6.968;2023-01-10T01:33:32;15.03;;;4.67;;
3443;SDS011;1736;52.068;6.968;2023-01-10T01:36:00;8.80;;;4.83;;
3443;SDS011;1736;52.068;6.968;2023-01-10T01:38:27;12.90;;;4.03;;
3443;SDS011;1736;52.068;6.968;2023-01-10T01:40:53;13.37;;;4.17;;
3443;SDS011;1736;52.068;6.968;2023-01-10T01:43:21;15.10;;;5.17;;
3443;SDS011;1736;52.068;6.968;2023-01-10T01:45:49;13.60;;;4.83;;
3443;SDS011;1736;52.068;6.968;2023-01-10T01:48:21;16.13;;;5.13;;
3443;SDS011;1736;52.068;6.968;2023-01-10T01:50:55;9.40;;;4.00;;
3443;SDS011;1736;52.068;6.968;2023-01-10T01:53:31;17.63;;;4.70;;
3443;SDS011;1736;52.068;6.968;2023-01-10T01:56:03;15.70;;;4.47;;
3443;SDS011;1736;52.068;6.968;2023-01-10T01:58:36;9.90;;;3.60;;
3443;SDS011;1736;52.068;6.968;2023-01-10T02:01:06;12.73;;;3.90;;
3443;SDS011;1736;52.068;6.968;2023-01-10T02:03:33;17.23;;;4.30;;
3443;SDS011;1736;52.068;6.968;2023-01-10T02:06:01;13.80;;;4.60;;
3443;SDS011;1736;52.068;6.968;2023-01-10T02:08:28;10.80;;;4.53;;
3443;SDS011;1736;52.068;6.968;2023-01-10T02:10:57;13.50;;;4.03;;
3443;SDS011;1736;52.068;6.968;2023-01-10T02:13:30;17.77;;;4.27;;
3443;SDS011;1736;52.068;6.968;2023-01-10T02:15:59;6.40;;;4.17;;
3443;SDS011;1736;52.068;6.968;2023-01-10T02:18:26;8.90;;;3.63;;
3443;SDS011;1736;52.068;6.968;2023-01-10T02:21:00;17.30;;;4.40;;
3443;SDS011;1736;52.068;6.968;2023-01-10T02:26:53;10.73;;;3.63;;
3443;SDS011;1736;52.068;6.968;2023-01-10T02:29:51;19.50;;;4.63;;
3443;SDS011;1736;52.068;6.968;2023-01-10T02:32:36;18.20;;;4.60;;
3443;SDS011;1736;52.068;6.968;2023-01-10T02:35:12;13.67;;;4.07;;
3443;SDS011;1736;52.068;6.968;2023-01-10T02:38:10;9.20;;;3.67;;
3443;SDS011;1736;52.068;6.968;2023-01-10T02:40:48;15.60;;;4.50;;
3443;SDS011;1736;52.068;6.968;2023-01-10T02:43:21;11.53;;;3.37;;
3443;SDS011;1736;52.068;6.968;2023-01-10T02:45:53;13.30;;;3.80;;
3443;SDS011;1736;52.068;6.968;2023-01-10T02:48:24;7.17;;;2.90;;
3443;SDS011;1736;52.068;6.968;2023-01-10T02:50:52;16.17;;;4.00;;
3443;SDS011;1736;52.068;6.968;2023-01-10T02:53:28;10.37;;;3.87;;
3443;SDS011;1736;52.068;6.968;2023-01-10T02:56:10;14.93;;;3.70;;
3443;SDS011;1736;52.068;6.968;2023-01-10T02:58:52;8.70;;;3.10;;
3443;SDS011;1736;52.068;6.968;2023-01-10T03:01:32;9.90;;;4.20;;
3443;SDS011;1736;52.068;6.968;2023-01-10T03:04:08;21.07;;;3.03;;
3443;SDS011;1736;52.068;6.968;2023-01-10T03:06:43;14.60;;;3.30;;
3443;SDS011;1736;52.068;6.968;2023-01-10T03:09:19;10.37;;;3.87;;
3443;SDS011;1736;52.068;6.968;2023-01-10T03:11:50;14.57;;;3.73;;
3443;SDS011;1736;52.068;6.968;2023-01-10T03:14:27;22.77;;;4.00;;
3443;SDS011;1736;52.068;6.968;2023-01-10T03:16:56;11.53;;;3.40;;
3443;SDS011;1736;52.068;6.968;2023-01-10T03:19:28;14.23;;;4.27;;
3443;SDS011;1736;52.068;6.968;2023-01-10T03:21:59;8.00;;;3.60;;
3443;SDS011;1736;52.068;6.968;2023-01-10T03:24:29;37.53;;;4.30;;
3443;SDS011;1736;52.068;6.968;2023-01-10T03:27:00;15.80;;;4.33;;
3443;SDS011;1736;52.068;6.968;2023-01-10T03:29:33;13.10;;;3.47;;
3443;SDS011;1736;52.068;6.968;2023-01-10T03:32:07;14.03;;;3.37;;
3443;SDS011;1736;52.068;6.968;2023-01-10T03:34:38;8.57;;;2.93;;
3443;SDS011;1736;52.068;6.968;2023-01-10T03:37:07;15.93;;;3.60;;
3443;SDS011;1736;52.068;6.968;2023-01-10T03:39:40;10.90;;;3.00;;
3443;SDS011;1736;52.068;6.968;2023-01-10T03:42:13;15.60;;;3.60;;
3443;SDS011;1736;52.068;6.968;2023-01-10T03:44:44;24.27;;;3.30;;
3443;SDS011;1736;52.068;6.968;2023-01-10T03:47:21;8.77;;;3.30;;
3443;SDS011;1736;52.068;6.968;2023-01-10T03:49:55;11.90;;;3.07;;
3443;SDS011;1736;52.068;6.968;2023-01-10T03:52:24;10.73;;;3.30;;
3443;SDS011;1736;52.068;6.968;2023-01-10T03:54:51;6.30;;;3.07;;
3443;SDS011;1736;52.068;6.968;2023-01-10T03:57:19;13.37;;;4.07;;
3443;SDS011;1736;52.068;6.968;2023-01-10T03:59:49;15.67;;;3.53;;
3443;SDS011;1736;52.068;6.968;2023-01-10T04:02:18;12.80;;;4.10;;
3443;SDS011;1736;52.068;6.968;2023-01-10T04:04:45;11.40;;;4.20;;
3443;SDS011;1736;52.068;6.968;2023-01-10T04:07:12;16.77;;;4.00;;
3443;SDS011;1736;52.068;6.968;2023-01-10T04:09:39;11.53;;;4.03;;
3443;SDS011;1736;52.068;6.968;2023-01-10T04:12:05;11.03;;;3.73;;
3443;SDS011;1736;52.068;6.968;2023-01-10T04:14:32;10.70;;;5.20;;
3443;SDS011;1736;52.068;6.968;2023-01-10T04:16:59;11.93;;;4.40;;
3443;SDS011;1736;52.068;6.968;2023-01-10T04:19:25;10.57;;;5.03;;
3443;SDS011;1736;52.068;6.968;2023-01-10T04:21:52;6.27;;;3.50;;
3443;SDS011;1736;52.068;6.968;2023-01-10T04:24:20;14.83;;;4.20;;
3443;SDS011;1736;52.068;6.968;2023-01-10T04:26:46;9.40;;;3.70;;
3443;SDS011;1736;52.068;6.968;2023-01-10T04:29:13;28.53;;;5.17;;
3443;SDS011;1736;52.068;6.968;2023-01-10T04:31:39;14.07;;;4.43;;
3443;SDS011;1736;52.068;6.968;2023-01-10T04:34:06;15.37;;;4.20;;
3443;SDS011;1736;52.068;6.968;2023-01-10T04:36:33;9.27;;;4.03;;
3443;SDS011;1736;52.068;6.968;2023-01-10T04:39:00;10.57;;;3.70;;
3443;SDS011;1736;52.068;6.968;2023-01-10T04:41:28;11.17;;;3.97;;
3443;SDS011;1736;52.068;6.968;2023-01-10T04:43:55;11.40;;;4.60;;
3443;SDS011;1736;52.068;6.968;2023-01-10T04:46:21;9.20;;;4.30;;
3443;SDS011;1736;52.068;6.968;2023-01-10T04:48:48;13.73;;;4.97;;
3443;SDS011;1736;52.068;6.968;2023-01-10T04:51:14;10.20;;;4.27;;
3443;SDS011;1736;52.068;6.968;2023-01-10T04:53:41;13.27;;;4.50;;
3443;SDS011;1736;52.068;6.968;2023-01-10T04:56:08;8.87;;;4.90;;
3443;SDS011;1736;52.068;6.968;2023-01-10T04:58:39;15.80;;;5.57;;
3443;SDS011;1736;52.068;6.968;2023-01-10T05:01:06;19.57;;;5.50;;
3443;SDS011;1736;52.068;6.968;2023-01-10T05:03:34;19.50;;;5.20;;
3443;SDS011;1736;52.068;6.968;2023-01-10T05:06:00;9.90;;;5.60;;
3443;SDS011;1736;52.068;6.968;2023-01-10T05:08:27;15.30;;;5.43;;
3443;SDS011;1736;52.068;6.968;2023-01-10T05:10:53;14.90;;;5.57;;
3443;SDS011;1736;52.068;6.968;2023-01-10T05:13:20;36.93;;;6.50;;
3443;SDS011;1736;52.068;6.968;2023-01-10T05:15:48;16.07;;;5.67;;
3443;SDS011;1736;52.068;6.968;2023-01-10T05:18:14;19.67;;;6.80;;
3443;SDS011;1736;52.068;6.968;2023-01-10T05:20:41;13.03;;;5.53;;
3443;SDS011;1736;52.068;6.968;2023-01-10T05:23:07;16.63;;;6.50;;
3443;SDS011;1736;52.068;6.968;2023-01-10T05:25:34;16.27;;;6.10;;
3443;SDS011;1736;52.068;6.968;2023-01-10T05:28:00;19.70;;;6.23;;
3443;SDS011;1736;52.068;6.968;2023-01-10T05:30:27;19.20;;;6.50;;
3443;SDS011;1736;52.068;6.968;2023-01-10T05:32:55;21.17;;;6.20;;
3443;SDS011;1736;52.068;6.968;2023-01-10T05:35:21;17.80;;;5.63;;
3443;SDS011;1736;52.068;6.968;2023-01-10T05:37:48;18.03;;;6.80;;
3443;SDS011;1736;52.068;6.968;2023-01-10T05:40:14;11.87;;;5.60;;
3443;SDS011;1736;52.068;6.968;2023-01-10T05:42:41;20.80;;;6.50;;
3443;SDS011;1736;52.068;6.968;2023-01-10T05:45:08;19.10;;;6.40;;
3443;SDS011;1736;52.068;6.968;2023-01-10T05:47:35;16.87;;;5.77;;
3443;SDS011;1736;52.068;6.968;2023-01-10T05:50:03;19.00;;;6.13;;
3443;SDS011;1736;52.068;6.968;2023-01-10T05:52:30;16.73;;;6.57;;
3443;SDS011;1736;52.068;6.968;2023-01-10T05:54:56;10.53;;;5.60;;
3443;SDS011;1736;52.068;6.968;2023-01-10T05:57:23;22.13;;;6.97;;
3443;SDS011;1736;52.068;6.968;2023-01-10T05:59:50;17.13;;;5.20;;
3443;SDS011;1736;52.068;6.968;2023-01-10T06:02:16;14.50;;;6.20;;
3443;SDS011;1736;52.068;6.968;2023-01-10T06:04:43;22.93;;;7.03;;
3443;SDS011;1736;52.068;6.968;2023-01-10T06:07:10;18.50;;;5.30;;
3443;SDS011;1736;52.068;6.968;2023-01-10T06:09:37;14.33;;;5.90;;
3443;SDS011;1736;52.068;6.968;2023-01-10T06:12:04;17.07;;;6.57;;
3443;SDS011;1736;52.068;6.968;2023-01-10T06:14:30;13.10;;;6.23;;
3443;SDS011;1736;52.068;6.968;2023-01-10T06:16:57;15.23;;;6.40;;
3443;SDS011;1736;52.068;6.968;2023-01-10T06:19:24;25.83;;;5.50;;
3443;SDS011;1736;52.068;6.968;2023-01-10T06:21:50;15.37;;;6.17;;
3443;SDS011;1736;52.068;6.968;2023-01-10T06:24:18;16.00;;;5.80;;
3443;SDS011;1736;52.068;6.968;2023-01-10T06:26:44;27.53;;;5.30;;
3443;SDS011;1736;52.068;6.968;2023-01-10T06:29:11;15.93;;;6.27;;
3443;SDS011;1736;52.068;6.968;2023-01-10T06:31:38;14.47;;;5.10;;
3443;SDS011;1736;52.068;6.968;2023-01-10T06:34:04;16.47;;;5.70;;
3443;SDS011;1736;52.068;6.968;2023-01-10T06:36:30;23.10;;;5.83;;
3443;SDS011;1736;52.068;6.968;2023-01-10T06:38:57;23.27;;;5.40;;
3443;SDS011;1736;52.068;6.968;2023-01-10T06:41:25;16.40;;;5.20;;
3443;SDS011;1736;52.068;6.968;2023-01-10T06:43:51;11.70;;;5.13;;
3443;SDS011;1736;52.068;6.968;2023-01-10T06:46:18;14.43;;;5.13;;
3443;SDS011;1736;52.068;6.968;2023-01-10T06:48:45;11.03;;;5.60;;
3443;SDS011;1736;52.068;6.968;2023-01-10T06:51:12;22.60;;;5.00;;
3443;SDS011;1736;52.068;6.968;2023-01-10T06:53:40;13.37;;;4.50;;
3443;SDS011;1736;52.068;6.968;2023-01-10T06:56:08;28.17;;;6.00;;
3443;SDS011;1736;52.068;6.968;2023-01-10T06:58:36;27.67;;;5.20;;
3443;SDS011;1736;52.068;6.968;2023-01-10T07:01:04;14.23;;;4.97;;
3443;SDS011;1736;52.068;6.968;2023-01-10T07:03:30;14.23;;;4.23;;
3443;SDS011;1736;52.068;6.968;2023-01-10T07:05:59;13.67;;;4.93;;
3443;SDS011;1736;52.068;6.968;2023-01-10T07:08:26;14.97;;;4.93;;
3443;SDS011;1736;52.068;6.968;2023-01-10T07:10:53;12.70;;;4.90;;
3443;SDS011;1736;52.068;6.968;2023-01-10T07:13:22;14.47;;;5.10;;
3443;SDS011;1736;52.068;6.968;2023-01-10T07:15:50;19.23;;;5.03;;
3443;SDS011;1736;52.068;6.968;2023-01-10T07:18:17;18.50;;;5.57;;
3443;SDS011;1736;52.068;6.968;2023-01-10T07:20:43;10.67;;;5.13;;
3443;SDS011;1736;52.068;6.968;2023-01-10T07:23:10;24.63;;;5.30;;
3443;SDS011;1736;52.068;6.968;2023-01-10T07:25:36;12.00;;;3.93;;
3443;SDS011;1736;52.068;6.968;2023-01-10T07:28:03;15.50;;;5.07;;
3443;SDS011;1736;52.068;6.968;2023-01-10T07:30:30;22.90;;;5.20;;
3443;SDS011;1736;52.068;6.968;2023-01-10T07:32:58;16.20;;;5.10;;
3443;SDS011;1736;52.068;6.968;2023-01-10T07:35:25;15.70;;;4.43;;
3443;SDS011;1736;52.068;6.968;2023-01-10T07:37:51;17.00;;;4.70;;
3443;SDS011;1736;52.068;6.968;2023-01-10T07:40:18;21.03;;;5.03;;
3443;SDS011;1736;52.068;6.968;2023-01-10T07:42:44;10.97;;;4.50;;
3443;SDS011;1736;52.068;6.968;2023-01-10T07:45:11;17.43;;;5.10;;
3443;SDS011;1736;52.068;6.968;2023-01-10T07:47:37;14.43;;;4.87;;
3443;SDS011;1736;52.068;6.968;2023-01-10T07:50:06;22.47;;;5.93;;
3443;SDS011;1736;52.068;6.968;2023-01-10T07:52:34;21.00;;;5.23;;
3443;SDS011;1736;52.068;6.968;2023-01-10T07:55:02;36.97;;;8.03;;
3443;SDS011;1736;52.068;6.968;2023-01-10T07:57:29;17.23;;;4.70;;
3443;SDS011;1736;52.068;6.968;2023-01-10T07:59:55;15.57;;;4.80;;
3443;SDS011;1736;52.068;6.968;2023-01-10T08:02:22;15.90;;;5.13;;
3443;SDS011;1736;52.068;6.968;2023-01-10T08:04:48;22.50;;;4.77;;
3443;SDS011;1736;52.068;6.968;2023-01-10T08:07:16;9.80;;;4.37;;
3443;SDS011;1736;52.068;6.968;2023-01-10T08:09:43;20.27;;;4.67;;
3443;SDS011;1736;52.068;6.968;2023-01-10T08:12:09;26.23;;;4.83;;
3443;SDS011;1736;52.068;6.968;2023-01-10T08:14:36;9.60;;;4.73;;
3443;SDS011;1736;52.068;6.968;2023-01-10T08:17:02;27.53;;;6.23;;
3443;SDS011;1736;52.068;6.968;2023-01-10T08:19:29;20.27;;;4.83;;
3443;SDS011;1736;52.068;6.968;2023-01-10T08:21:55;16.13;;;4.40;;
3443;SDS011;1736;52.068;6.968;2023-01-10T08:24:23;24.17;;;4.40;;
3443;SDS011;1736;52.068;6.968;2023-01-10T08:26:49;21.50;;;4.93;;
3443;SDS011;1736;52.068;6.968;2023-01-10T08:29:16;12.93;;;4.00;;
3443;SDS011;1736;52.068;6.968;2023-01-10T08:31:43;16.60;;;4.63;;
3443;SDS011;1736;52.068;6.968;2023-01-10T08:34:11;20.63;;;4.17;;
3443;SDS011;1736;52.068;6.968;2023-01-10T08:36:37;20.70;;;4.63;;
3443;SDS011;1736;52.068;6.968;2023-01-10T08:39:04;15.57;;;4.63;;
3443;SDS011;1736;52.068;6.968;2023-01-10T08:41:32;18.03;;;6.53;;
3443;SDS011;1736;52.068;6.968;2023-01-10T08:43:58;18.50;;;4.60;;
3443;SDS011;1736;52.068;6.968;2023-01-10T08:46:25;22.63;;;4.87;;
3443;SDS011;1736;52.068;6.968;2023-01-10T08:48:51;16.07;;;4.27;;
3443;SDS011;1736;52.068;6.968;2023-01-10T08:51:18;19.10;;;4.53;;
3443;SDS011;1736;52.068;6.968;2023-01-10T08:53:44;16.17;;;4.70;;
3443;SDS011;1736;52.068;6.968;2023-01-10T08:56:11;25.10;;;5.93;;
3443;SDS011;1736;52.068;6.968;2023-01-10T08:58:39;18.07;;;3.77;;
3443;SDS011;1736;52.068;6.968;2023-01-10T09:01:05;17.10;;;4.60;;
3443;SDS011;1736;52.068;6.968;2023-01-10T09:03:33;22.80;;;4.43;;
3443;SDS011;1736;52.068;6.968;2023-01-10T09:05:59;25.73;;;5.30;;
3443;SDS011;1736;52.068;6.968;2023-01-10T09:08:26;15.77;;;4.90;;
3443;SDS011;1736;52.068;6.968;2023-01-10T09:10:53;15.07;;;4.10;;
3443;SDS011;1736;52.068;6.968;2023-01-10T09:13:19;25.77;;;5.30;;
3443;SDS011;1736;52.068;6.968;2023-01-10T09:15:47;18.83;;;4.33;;
3443;SDS011;1736;52.068;6.968;2023-01-10T09:18:16;20.00;;;4.43;;
3443;SDS011;1736;52.068;6.968;2023-01-10T09:20:43;19.63;;;6.07;;
3443;SDS011;1736;52.068;6.968;2023-01-10T09:23:11;15.23;;;4.47;;
3443;SDS011;1736;52.068;6.968;2023-01-10T09:25:41;17.17;;;5.23;;
3443;SDS011;1736;52.068;6.968;2023-01-10T09:28:08;11.77;;;5.10;;
3443;SDS011;1736;52.068;6.968;2023-01-10T09:30:35;27.20;;;4.83;;
3443;SDS011;1736;52.068;6.968;2023-01-10T09:33:04;18.20;;;5.00;;
3443;SDS011;1736;52.068;6.968;2023-01-10T09:35:33;18.93;;;4.37;;
3443;SDS011;1736;52.068;6.968;2023-01-10T09:38:01;15.83;;;4.70;;
3443;SDS011;1736;52.068;6.968;2023-01-10T09:40:35;16.20;;;4.27;;
3443;SDS011;1736;52.068;6.968;2023-01-10T09:43:15;21.90;;;5.83;;
3443;SDS011;1736;52.068;6.968;2023-01-10T09:45:52;18.97;;;4.53;;
3443;SDS011;1736;52.068;6.968;2023-01-10T09:48:29;24.47;;;5.57;;
3443;SDS011;1736;52.068;6.968;2023-01-10T09:51:09;19.67;;;4.70;;
3443;SDS011;1736;52.068;6.968;2023-01-10T09:53:43;14.53;;;4.60;;
3443;SDS011;1736;52.068;6.968;2023-01-10T09:56:13;18.20;;;4.23;;
3443;SDS011;1736;52.068;6.968;2023-01-10T09:58:40;21.27;;;5.57;;
3443;SDS011;1736;52.068;6.968;2023-01-10T10:01:10;18.63;;;5.20;;
3443;SDS011;1736;52.068;6.968;2023-01-10T10:03:44;17.73;;;4.60;;
3443;SDS011;1736;52.068;6.968;2023-01-10T10:06:16;19.97;;;5.10;;
3443;SDS011;1736;52.068;6.968;2023-01-10T10:08:44;11.90;;;4.20;;
3443;SDS011;1736;52.068;6.968;2023-01-10T10:14:06;15.10;;;4.13;;
3443;SDS011;1736;52.068;6.968;2023-01-10T10:16:45;18.63;;;5.77;;
3443;SDS011;1736;52.068;6.968;2023-01-10T10:19:22;19.57;;;4.77;;
3443;SDS011;1736;52.068;6.968;2023-01-10T10:22:00;21.60;;;4.60;;
3443;SDS011;1736;52.068;6.968;2023-01-10T10:24:38;13.70;;;4.47;;
3443;SDS011;1736;52.068;6.968;2023-01-10T10:27:14;14.17;;;4.53;;
3443;SDS011;1736;52.068;6.968;2023-01-10T10:29:49;12.60;;;3.87;;
3443;SDS011;1736;52.068;6.968;2023-01-10T10:32:46;15.67;;;4.07;;
3443;SDS011;1736;52.068;6.968;2023-01-10T10:35:30;20.83;;;5.40;;
3443;SDS011;1736;52.068;6.968;2023-01-10T10:38:03;16.33;;;4.47;;
3443;SDS011;1736;52.068;6.968;2023-01-10T10:40:36;14.87;;;4.57;;
3443;SDS011;1736;52.068;6.968;2023-01-10T10:43:10;15.60;;;4.60;;
3443;SDS011;1736;52.068;6.968;2023-01-10T10:45:44;15.20;;;4.07;;
3443;SDS011;1736;52.068;6.968;2023-01-10T10:48:14;16.10;;;4.20;;
3443;SDS011;1736;52.068;6.968;2023-01-10T10:50:47;20.67;;;5.10;;
3443;SDS011;1736;52.068;6.968;2023-01-10T10:53:19;16.37;;;5.20;;
3443;SDS011;1736;52.068;6.968;2023-01-10T10:55:46;24.20;;;5.30;;
3443;SDS011;1736;52.068;6.968;2023-01-10T10:58:13;15.90;;;4.50;;
3443;SDS011;1736;52.068;6.968;2023-01-10T11:00:40;14.63;;;4.10;;
3443;SDS011;1736;52.068;6.968;2023-01-10T11:03:12;15.80;;;4.27;;
3443;SDS011;1736;52.068;6.968;2023-01-10T11:05:50;16.60;;;4.40;;
3443;SDS011;1736;52.068;6.968;2023-01-10T11:08:17;12.27;;;3.90;;
3443;SDS011;1736;52.068;6.968;2023-01-10T11:10:47;16.33;;;4.13;;
3443;SDS011;1736;52.068;6.968;2023-01-10T11:13:16;18.43;;;5.50;;
3443;SDS011;1736;52.068;6.968;2023-01-10T11:15:50;13.27;;;4.20;;
3443;SDS011;1736;52.068;6.968;2023-01-10T11:18:17;18.40;;;4.20;;
3443;SDS011;1736;52.068;6.968;2023-01-10T11:20:50;18.70;;;4.30;;
3443;SDS011;1736;52.068;6.968;2023-01-10T11:23:22;19.70;;;4.53;;
3443;SDS011;1736;52.068;6.968;2023-01-10T11:25:53;16.30;;;5.00;;
3443;SDS011;1736;52.068;6.968;2023-01-10T11:28:19;20.80;;;5.23;;
3443;SDS011;1736;52.068;6.968;2023-01-10T11:30:51;11.73;;;4.50;;
3443;SDS011;1736;52.068;6.968;2023-01-10T11:33:19;29.87;;;7.00;;
3443;SDS011;1736;52.068;6.968;2023-01-10T11:35:56;26.23;;;7.40;;
3443;SDS011;1736;52.068;6.968;2023-01-10T11:38:25;25.50;;;5.00;;
3443;SDS011;1736;52.068;6.968;2023-01-10T11:40:55;22.50;;;5.03;;
3443;SDS011;1736;52.068;6.968;2023-01-10T11:43:24;16.60;;;5.20;;
3443;SDS011;1736;52.068;6.968;2023-01-10T11:45:54;17.90;;;5.07;;
3443;SDS011;1736;52.068;6.968;2023-01-10T11:48:23;20.90;;;5.10;;
3443;SDS011;1736;52.068;6.968;2023-01-10T11:50:52;19.50;;;4.80;;
3443;SDS011;1736;52.068;6.968;2023-01-10T11:53:28;17.87;;;5.03;;
3443;SDS011;1736;52.068;6.968;2023-01-10T11:56:00;19.17;;;6.33;;
3443;SDS011;1736;52.068;6.968;2023-01-10T11:58:28;14.00;;;5.13;;
3443;SDS011;1736;52.068;6.968;2023-01-10T12:00:56;22.30;;;5.50;;
3443;SDS011;1736;52.068;6.968;2023-01-10T12:03:24;17.83;;;5.40;;
3443;SDS011;1736;52.068;6.968;2023-01-10T12:05:54;17.80;;;5.80;;
3443;SDS011;1736;52.068;6.968;2023-01-10T12:08:23;18.80;;;4.93;;
3443;SDS011;1736;52.068;6.968;2023-01-10T12:11:00;18.70;;;5.40;;
3443;SDS011;1736;52.068;6.968;2023-01-10T12:13:28;26.20;;;4.97;;
3443;SDS011;1736;52.068;6.968;2023-01-10T12:16:14;20.50;;;5.40;;
3443;SDS011;1736;52.068;6.968;2023-01-10T12:18:42;14.43;;;4.87;;
3443;SDS011;1736;52.068;6.968;2023-01-10T12:21:09;22.37;;;5.20;;
3443;SDS011;1736;52.068;6.968;2023-01-10T12:23:39;17.53;;;4.63;;
3443;SDS011;1736;52.068;6.968;2023-01-10T12:26:08;15.40;;;4.57;;
3443;SDS011;1736;52.068;6.968;2023-01-10T12:28:37;18.07;;;4.80;;
3443;SDS011;1736;52.068;6.968;2023-01-10T12:31:06;13.10;;;4.57;;
3443;SDS011;1736;52.068;6.968;2023-01-10T12:33:40;11.30;;;4.47;;
3443;SDS011;1736;52.068;6.968;2023-01-10T12:36:12;17.53;;;4.00;;
3443;SDS011;1736;52.068;6.968;2023-01-10T12:38:52;15.57;;;3.50;;
3443;SDS011;1736;52.068;6.968;2023-01-10T12:41:32;19.37;;;4.60;;
3443;SDS011;1736;52.068;6.968;2023-01-10T12:44:21;14.80;;;4.27;;
3443;SDS011;1736;52.068;6.968;2023-01-10T12:46:54;12.37;;;4.80;;
3443;SDS011;1736;52.068;6.968;2023-01-10T12:49:24;15.67;;;3.50;;
3443;SDS011;1736;52.068;6.968;2023-01-10T12:51:55;12.77;;;3.60;;
3443;SDS011;1736;52.068;6.968;2023-01-10T12:54:27;12.37;;;3.33;;
3443;SDS011;1736;52.068;6.968;2023-01-10T12:56:56;16.63;;;4.00;;
3443;SDS011;1736;52.068;6.968;2023-01-10T12:59:26;11.70;;;3.87;;
3443;SDS011;1736;52.068;6.968;2023-01-10T13:02:01;17.43;;;3.60;;
3443;SDS011;1736;52.068;6.968;2023-01-10T13:04:30;14.00;;;3.77;;
3443;SDS011;1736;52.068;6.968;2023-01-10T13:06:59;13.83;;;4.10;;
3443;SDS011;1736;52.068;6.968;2023-01-10T13:09:28;16.93;;;3.60;;
3443;SDS011;1736;52.068;6.968;2023-01-10T13:11:57;19.20;;;4.20;;
3443;SDS011;1736;52.068;6.968;2023-01-10T13:14:29;14.40;;;4.23;;
3443;SDS011;1736;52.068;6.968;2023-01-10T13:17:02;15.13;;;3.43;;
3443;SDS011;1736;52.068;6.968;2023-01-10T13:19:35;14.83;;;3.47;;
3443;SDS011;1736;52.068;6.968;2023-01-10T13:22:15;16.90;;;3.70;;
3443;SDS011;1736;52.068;6.968;2023-01-10T13:24:55;15.63;;;3.80;;
3443;SDS011;1736;52.068;6.968;2023-01-10T13:27:24;18.20;;;3.70;;
3443;SDS011;1736;52.068;6.968;2023-01-10T13:29:54;15.23;;;3.03;;
3443;SDS011;1736;52.068;6.968;2023-01-10T13:32:22;13.93;;;3.93;;
3443;SDS011;1736;52.068;6.968;2023-01-10T13:34:52;13.30;;;3.33;;
3443;SDS011;1736;52.068;6.968;2023-01-10T13:37:21;12.63;;;4.10;;
3443;SDS011;1736;52.068;6.968;2023-01-10T13:39:50;16.80;;;3.60;;
3443;SDS011;1736;52.068;6.968;2023-01-10T13:42:28;13.73;;;3.90;;
3443;SDS011;1736;52.068;6.968;2023-01-10T13:45:14;17.47;;;4.67;;
3443;SDS011;1736;52.068;6.968;2023-01-10T13:47:55;13.40;;;3.17;;
3443;SDS011;1736;52.068;6.968;2023-01-10T13:58:56;23.20;;;4.63;;
3443;SDS011;1736;52.068;6.968;2023-01-10T14:01:40;12.67;;;4.13;;
3443;SDS011;1736;52.068;6.968;2023-01-10T14:04:26;17.70;;;4.73;;
3443;SDS011;1736;52.068;6.968;2023-01-10T14:06:55;11.00;;;2.97;;
3443;SDS011;1736;52.068;6.968;2023-01-10T14:09:28;14.80;;;3.50;;
3443;SDS011;1736;52.068;6.968;2023-01-10T14:12:00;15.90;;;3.33;;
3443;SDS011;1736;52.068;6.968;2023-01-10T14:14:31;15.33;;;3.87;;
3443;SDS011;1736;52.068;6.968;2023-01-10T14:17:09;15.87;;;4.77;;
3443;SDS011;1736;52.068;6.968;2023-01-10T14:19:39;21.60;;;4.33;;
3443;SDS011;1736;52.068;6.968;2023-01-10T14:22:17;18.67;;;4.10;;
3443;SDS011;1736;52.068;6.968;2023-01-10T14:24:50;13.00;;;3.77;;
3443;SDS011;1736;52.068;6.968;2023-01-10T14:27:18;9.50;;;3.27;;
3443;SDS011;1736;52.068;6.968;2023-01-10T14:29:48;20.07;;;4.30;;
3443;SDS011;1736;52.068;6.968;2023-01-10T14:32:23;10.77;;;3.30;;
3443;SDS011;1736;52.068;6.968;2023-01-10T14:34:58;13.40;;;3.50;;
3443;SDS011;1736;52.068;6.968;2023-01-10T14:37:28;14.37;;;3.80;;
3443;SDS011;1736;52.068;6.968;2023-01-10T14:40:02;17.90;;;3.40;;
3443;SDS011;1736;52.068;6.968;2023-01-10T14:42:30;14.73;;;3.47;;
3443;SDS011;1736;52.068;6.968;2023-01-10T14:45:02;19.03;;;4.73;;
3443;SDS011;1736;52.068;6.968;2023-01-10T14:47:43;8.13;;;3.03;;
3443;SDS011;1736;52.068;6.968;2023-01-10T14:50:21;14.57;;;4.00;;
3443;SDS011;1736;52.068;6.968;2023-01-10T14:52:49;23.90;;;7.50;;
3443;SDS011;1736;52.068;6.968;2023-01-10T14:55:16;18.77;;;4.50;;
3443;SDS011;1736;52.068;6.968;2023-01-10T14:57:51;10.60;;;3.33;;
3443;SDS011;1736;52.068;6.968;2023-01-10T15:00:23;12.63;;;3.77;;
3443;SDS011;1736;52.068;6.968;2023-01-10T15:02:52;11.53;;;3.20;;
3443;SDS011;1736;52.068;6.968;2023-01-10T15:05:19;14.63;;;3.67;;
3443;SDS011;1736;52.068;6.968;2023-01-10T15:07:48;13.37;;;3.97;;
3443;SDS011;1736;52.068;6.968;2023-01-10T15:10:18;18.27;;;3.50;;
3443;SDS011;1736;52.068;6.968;2023-01-10T15:12:48;19.57;;;4.10;;
3443;SDS011;1736;52.068;6.968;2023-01-10T15:15:18;16.33;;;4.13;;
3443;SDS011;1736;52.068;6.968;2023-01-10T15:17:49;21.20;;;3.57;;
3443;SDS011;1736;52.068;6.968;2023-01-10T15:20:16;10.60;;;3.40;;
3443;SDS011;1736;52.068;6.968;2023-01-10T15:22:45;16.23;;;3.23;;
3443;SDS011;1736;52.068;6.968;2023-01-10T15:25:27;19.70;;;4.47;;
3443;SDS011;1736;52.068;6.968;2023-01-10T15:27:56;13.50;;;4.17;;
3443;SDS011;1736;52.068;6.968;2023-01-10T15:30:24;10.57;;;3.10;;
3443;SDS011;1736;52.068;6.968;2023-01-10T15:32:55;14.10;;;3.13;;
3443;SDS011;1736;52.068;6.968;2023-01-10T15:35:27;13.20;;;3.43;;